sensor_id;sensor_type;location;lat;lon;timestamp;temperature;humidity
5134;DHT22;2585;48.696;10.066;2022-08-03T00:02:14;15.50;82.60
5134;DHT22;2585;48.696;10.066;2022-08-03T00:04:42;15.40;80.60
5134;DHT22;2585;48.696;10.066;2022-08-03T00:07:09;15.50;79.80
5134;DHT22;2585;48.696;10.066;2022-08-03T00:09:36;15.40;79.70
5134;DHT22;2585;48.696;10.066;2022-08-03T00:12:03;15.40;81.90
5134;DHT22;2585;48.696;10.066;2022-08-03T00:14:30;15.40;82.20
5134;DHT22;2585;48.696;10.066;2022-08-03T00:16:56;15.30;80.50
5134;DHT22;2585;48.696;10.066;2022-08-03T00:19:23;15.30;81.80
5134;DHT22;2585;48.696;10.066;2022-08-03T00:21:50;15.30;81.90
5134;DHT22;2585;48.696;10.066;2022-08-03T00:24:17;15.20;85.20
5134;DHT22;2585;48.696;10.066;2022-08-03T00:26:44;15.20;84.90
5134;DHT22;2585;48.696;10.066;2022-08-03T00:29:10;15.20;85.10
5134;DHT22;2585;48.696;10.066;2022-08-03T00:31:37;15.20;84.80
5134;DHT22;2585;48.696;10.066;2022-08-03T00:34:24;15.10;85.20
5134;DHT22;2585;48.696;10.066;2022-08-03T00:37:11;15.10;86.00
5134;DHT22;2585;48.696;10.066;2022-08-03T00:39:38;15.00;86.90
5134;DHT22;2585;48.696;10.066;2022-08-03T00:42:06;15.00;87.40
5134;DHT22;2585;48.696;10.066;2022-08-03T00:44:39;14.90;88.70
5134;DHT22;2585;48.696;10.066;2022-08-03T00:47:08;14.90;89.60
5134;DHT22;2585;48.696;10.066;2022-08-03T00:49:39;14.90;90.20
5134;DHT22;2585;48.696;10.066;2022-08-03T00:52:10;14.90;90.20
5134;DHT22;2585;48.696;10.066;2022-08-03T00:54:39;14.80;90.50
5134;DHT22;2585;48.696;10.066;2022-08-03T00:57:06;14.80;90.70
5134;DHT22;2585;48.696;10.066;2022-08-03T00:59:33;14.80;90.70
5134;DHT22;2585;48.696;10.066;2022-08-03T01:02:00;14.80;90.30
5134;DHT22;2585;48.696;10.066;2022-08-03T01:04:27;14.80;89.40
5134;DHT22;2585;48.696;10.066;2022-08-03T01:07:05;14.80;89.10
5134;DHT22;2585;48.696;10.066;2022-08-03T01:12:28;14.70;90.10
5134;DHT22;2585;48.696;10.066;2022-08-03T01:15:24;14.70;90.20
5134;DHT22;2585;48.696;10.066;2022-08-03T01:20:26;14.60;90.00
5134;DHT22;2585;48.696;10.066;2022-08-03T01:23:27;14.60;90.00
5134;DHT22;2585;48.696;10.066;2022-08-03T01:31:58;14.50;90.50
5134;DHT22;2585;48.696;10.066;2022-08-03T01:35:03;14.50;91.00
5134;DHT22;2585;48.696;10.066;2022-08-03T01:37:52;14.40;91.20
5134;DHT22;2585;48.696;10.066;2022-08-03T01:40:24;14.40;91.30
5134;DHT22;2585;48.696;10.066;2022-08-03T01:42:52;14.40;91.40
5134;DHT22;2585;48.696;10.066;2022-08-03T01:45:20;14.30;91.50
5134;DHT22;2585;48.696;10.066;2022-08-03T01:47:49;14.30;91.50
5134;DHT22;2585;48.696;10.066;2022-08-03T01:50:20;14.30;91.60
5134;DHT22;2585;48.696;10.066;2022-08-03T01:52:48;14.30;91.50
5134;DHT22;2585;48.696;10.066;2022-08-03T01:55:17;14.20;91.60
5134;DHT22;2585;48.696;10.066;2022-08-03T01:57:47;14.20;91.70
5134;DHT22;2585;48.696;10.066;2022-08-03T02:00:33;14.30;91.40
5134;DHT22;2585;48.696;10.066;2022-08-03T02:03:04;14.20;91.10
5134;DHT22;2585;48.696;10.066;2022-08-03T02:05:32;14.20;91.00
5134;DHT22;2585;48.696;10.066;2022-08-03T02:08:01;14.20;91.00
5134;DHT22;2585;48.696;10.066;2022-08-03T02:10:29;14.10;91.20
5134;DHT22;2585;48.696;10.066;2022-08-03T02:13:02;14.10;91.40
5134;DHT22;2585;48.696;10.066;2022-08-03T02:15:35;14.00;91.50
5134;DHT22;2585;48.696;10.066;2022-08-03T02:18:05;14.00;91.70
5134;DHT22;2585;48.696;10.066;2022-08-03T02:20:33;13.90;91.70
5134;DHT22;2585;48.696;10.066;2022-08-03T02:25:50;13.90;91.70
5134;DHT22;2585;48.696;10.066;2022-08-03T02:28:20;13.90;91.70
5134;DHT22;2585;48.696;10.066;2022-08-03T02:30:52;13.90;91.90
5134;DHT22;2585;48.696;10.066;2022-08-03T02:33:30;13.90;91.90
5134;DHT22;2585;48.696;10.066;2022-08-03T02:35:59;13.90;91.90
5134;DHT22;2585;48.696;10.066;2022-08-03T02:38:31;13.80;91.90
5134;DHT22;2585;48.696;10.066;2022-08-03T02:41:00;13.80;91.90
5134;DHT22;2585;48.696;10.066;2022-08-03T02:43:31;13.80;91.90
5134;DHT22;2585;48.696;10.066;2022-08-03T02:46:24;13.80;91.80
5134;DHT22;2585;48.696;10.066;2022-08-03T02:48:53;13.80;91.90
5134;DHT22;2585;48.696;10.066;2022-08-03T02:51:21;13.70;91.90
5134;DHT22;2585;48.696;10.066;2022-08-03T02:53:51;13.70;91.90
5134;DHT22;2585;48.696;10.066;2022-08-03T02:56:21;13.70;91.90
5134;DHT22;2585;48.696;10.066;2022-08-03T02:58:49;13.70;92.00
5134;DHT22;2585;48.696;10.066;2022-08-03T03:01:20;13.60;92.00
5134;DHT22;2585;48.696;10.066;2022-08-03T03:03:49;13.60;92.00
5134;DHT22;2585;48.696;10.066;2022-08-03T03:06:17;13.70;91.90
5134;DHT22;2585;48.696;10.066;2022-08-03T03:08:46;13.60;91.80
5134;DHT22;2585;48.696;10.066;2022-08-03T03:11:14;13.50;91.70
5134;DHT22;2585;48.696;10.066;2022-08-03T03:13:42;13.60;91.70
5134;DHT22;2585;48.696;10.066;2022-08-03T03:16:11;13.60;91.80
5134;DHT22;2585;48.696;10.066;2022-08-03T03:18:39;13.60;91.90
5134;DHT22;2585;48.696;10.066;2022-08-03T03:21:08;13.50;91.80
5134;DHT22;2585;48.696;10.066;2022-08-03T03:23:38;13.50;91.80
5134;DHT22;2585;48.696;10.066;2022-08-03T03:26:06;13.40;91.90
5134;DHT22;2585;48.696;10.066;2022-08-03T03:28:33;13.40;91.90
5134;DHT22;2585;48.696;10.066;2022-08-03T03:31:04;13.30;91.90
5134;DHT22;2585;48.696;10.066;2022-08-03T03:33:35;13.30;91.90
5134;DHT22;2585;48.696;10.066;2022-08-03T03:36:04;13.30;92.00
5134;DHT22;2585;48.696;10.066;2022-08-03T03:38:32;13.30;92.10
5134;DHT22;2585;48.696;10.066;2022-08-03T03:40:59;13.30;92.00
5134;DHT22;2585;48.696;10.066;2022-08-03T03:43:26;13.30;92.10
5134;DHT22;2585;48.696;10.066;2022-08-03T03:45:56;13.30;92.00
5134;DHT22;2585;48.696;10.066;2022-08-03T03:48:24;13.30;92.00
5134;DHT22;2585;48.696;10.066;2022-08-03T03:50:51;13.30;91.90
5134;DHT22;2585;48.696;10.066;2022-08-03T03:53:18;13.20;91.90
5134;DHT22;2585;48.696;10.066;2022-08-03T03:55:45;13.20;92.00
5134;DHT22;2585;48.696;10.066;2022-08-03T03:58:28;13.20;92.00
5134;DHT22;2585;48.696;10.066;2022-08-03T04:00:55;13.20;92.00
5134;DHT22;2585;48.696;10.066;2022-08-03T04:03:22;13.20;92.00
5134;DHT22;2585;48.696;10.066;2022-08-03T04:05:49;13.20;91.90
5134;DHT22;2585;48.696;10.066;2022-08-03T04:08:35;13.10;91.80
5134;DHT22;2585;48.696;10.066;2022-08-03T04:11:29;13.10;91.90
5134;DHT22;2585;48.696;10.066;2022-08-03T04:14:19;13.10;92.00
5134;DHT22;2585;48.696;10.066;2022-08-03T04:17:00;13.10;92.00
5134;DHT22;2585;48.696;10.066;2022-08-03T04:19:54;13.10;92.00
5134;DHT22;2585;48.696;10.066;2022-08-03T04:22:25;13.10;92.10
5134;DHT22;2585;48.696;10.066;2022-08-03T04:25:01;13.10;92.10
5134;DHT22;2585;48.696;10.066;2022-08-03T04:27:33;13.10;92.10
5134;DHT22;2585;48.696;10.066;2022-08-03T04:30:03;13.10;92.10
5134;DHT22;2585;48.696;10.066;2022-08-03T04:32:31;13.20;92.10
5134;DHT22;2585;48.696;10.066;2022-08-03T04:34:59;13.20;92.20
5134;DHT22;2585;48.696;10.066;2022-08-03T04:40:06;13.20;92.20
5134;DHT22;2585;48.696;10.066;2022-08-03T04:42:35;13.10;92.20
5134;DHT22;2585;48.696;10.066;2022-08-03T04:45:04;13.10;92.30
5134;DHT22;2585;48.696;10.066;2022-08-03T04:47:33;13.10;92.30
5134;DHT22;2585;48.696;10.066;2022-08-03T04:50:01;13.10;92.40
5134;DHT22;2585;48.696;10.066;2022-08-03T04:52:28;13.20;92.40
5134;DHT22;2585;48.696;10.066;2022-08-03T04:54:55;13.20;92.40
5134;DHT22;2585;48.696;10.066;2022-08-03T04:57:23;13.20;92.50
5134;DHT22;2585;48.696;10.066;2022-08-03T04:59:51;13.30;92.50
5134;DHT22;2585;48.696;10.066;2022-08-03T05:02:28;13.40;92.60
5134;DHT22;2585;48.696;10.066;2022-08-03T05:04:56;13.40;92.60
5134;DHT22;2585;48.696;10.066;2022-08-03T05:07:23;13.50;92.60
5134;DHT22;2585;48.696;10.066;2022-08-03T05:09:51;13.60;92.60
5134;DHT22;2585;48.696;10.066;2022-08-03T05:12:28;13.60;92.50
5134;DHT22;2585;48.696;10.066;2022-08-03T05:14:59;13.70;92.60
5134;DHT22;2585;48.696;10.066;2022-08-03T05:17:26;13.70;92.60
5134;DHT22;2585;48.696;10.066;2022-08-03T05:19:53;13.80;92.60
5134;DHT22;2585;48.696;10.066;2022-08-03T05:22:21;13.90;92.60
5134;DHT22;2585;48.696;10.066;2022-08-03T05:24:48;14.00;92.60
5134;DHT22;2585;48.696;10.066;2022-08-03T05:27:15;14.00;92.60
5134;DHT22;2585;48.696;10.066;2022-08-03T05:29:45;14.10;92.60
5134;DHT22;2585;48.696;10.066;2022-08-03T05:32:13;14.20;92.60
5134;DHT22;2585;48.696;10.066;2022-08-03T05:34:39;14.30;92.60
5134;DHT22;2585;48.696;10.066;2022-08-03T05:37:07;14.40;92.70
5134;DHT22;2585;48.696;10.066;2022-08-03T05:39:34;14.50;92.70
5134;DHT22;2585;48.696;10.066;2022-08-03T05:42:01;14.60;92.70
5134;DHT22;2585;48.696;10.066;2022-08-03T05:44:28;14.70;92.70
5134;DHT22;2585;48.696;10.066;2022-08-03T05:46:57;14.90;92.70
5134;DHT22;2585;48.696;10.066;2022-08-03T05:49:24;15.00;92.60
5134;DHT22;2585;48.696;10.066;2022-08-03T05:51:51;15.10;92.70
5134;DHT22;2585;48.696;10.066;2022-08-03T05:54:37;15.20;92.70
5134;DHT22;2585;48.696;10.066;2022-08-03T05:57:23;15.30;92.60
5134;DHT22;2585;48.696;10.066;2022-08-03T05:59:51;15.40;92.50
5134;DHT22;2585;48.696;10.066;2022-08-03T06:02:23;15.50;92.40
5134;DHT22;2585;48.696;10.066;2022-08-03T06:04:50;15.50;92.50
5134;DHT22;2585;48.696;10.066;2022-08-03T06:07:17;15.70;92.50
5134;DHT22;2585;48.696;10.066;2022-08-03T06:09:44;15.80;92.20
5134;DHT22;2585;48.696;10.066;2022-08-03T06:12:30;16.00;92.10
5134;DHT22;2585;48.696;10.066;2022-08-03T06:14:57;16.30;90.90
5134;DHT22;2585;48.696;10.066;2022-08-03T06:17:24;16.30;91.70
5134;DHT22;2585;48.696;10.066;2022-08-03T06:19:52;16.40;91.60
5134;DHT22;2585;48.696;10.066;2022-08-03T06:22:19;16.60;90.90
5134;DHT22;2585;48.696;10.066;2022-08-03T06:24:46;16.90;86.50
5134;DHT22;2585;48.696;10.066;2022-08-03T06:27:19;17.10;79.30
5134;DHT22;2585;48.696;10.066;2022-08-03T06:30:03;17.30;71.70
5134;DHT22;2585;48.696;10.066;2022-08-03T06:32:30;17.50;72.30
5134;DHT22;2585;48.696;10.066;2022-08-03T06:34:57;17.80;61.30
5134;DHT22;2585;48.696;10.066;2022-08-03T06:37:23;18.00;49.10
5134;DHT22;2585;48.696;10.066;2022-08-03T06:39:50;18.30;28.40
5134;DHT22;2585;48.696;10.066;2022-08-03T06:42:17;18.60;24.50
5134;DHT22;2585;48.696;10.066;2022-08-03T06:44:46;18.90;14.00
5134;DHT22;2585;48.696;10.066;2022-08-03T06:47:13;19.10;11.60
5134;DHT22;2585;48.696;10.066;2022-08-03T06:49:39;19.30;12.10
5134;DHT22;2585;48.696;10.066;2022-08-03T06:52:07;19.60;9.10
5134;DHT22;2585;48.696;10.066;2022-08-03T06:54:34;20.00;3.80
5134;DHT22;2585;48.696;10.066;2022-08-03T06:57:02;20.30;1.90
5134;DHT22;2585;48.696;10.066;2022-08-03T06:59:29;20.60;1.00
5134;DHT22;2585;48.696;10.066;2022-08-03T07:02:16;20.80;1.00
5134;DHT22;2585;48.696;10.066;2022-08-03T07:04:47;21.00;1.00
5134;DHT22;2585;48.696;10.066;2022-08-03T07:07:14;21.60;1.00
5134;DHT22;2585;48.696;10.066;2022-08-03T07:09:41;21.80;1.00
5134;DHT22;2585;48.696;10.066;2022-08-03T07:12:23;22.00;1.00
5134;DHT22;2585;48.696;10.066;2022-08-03T07:14:49;22.40;1.00
5134;DHT22;2585;48.696;10.066;2022-08-03T07:17:16;22.60;1.00
5134;DHT22;2585;48.696;10.066;2022-08-03T07:19:43;23.00;1.00
5134;DHT22;2585;48.696;10.066;2022-08-03T07:22:10;23.30;1.00
5134;DHT22;2585;48.696;10.066;2022-08-03T07:24:37;23.70;1.00
5134;DHT22;2585;48.696;10.066;2022-08-03T07:27:04;24.00;1.00
5134;DHT22;2585;48.696;10.066;2022-08-03T07:29:31;24.20;1.00
5134;DHT22;2585;48.696;10.066;2022-08-03T07:32:00;24.50;1.00
5134;DHT22;2585;48.696;10.066;2022-08-03T07:34:28;24.50;1.00
5134;DHT22;2585;48.696;10.066;2022-08-03T07:36:54;24.50;1.00
5134;DHT22;2585;48.696;10.066;2022-08-03T07:39:21;24.80;1.00
5134;DHT22;2585;48.696;10.066;2022-08-03T07:41:48;24.90;1.00
5134;DHT22;2585;48.696;10.066;2022-08-03T07:44:20;24.90;1.00
5134;DHT22;2585;48.696;10.066;2022-08-03T07:46:47;25.30;1.00
5134;DHT22;2585;48.696;10.066;2022-08-03T07:49:13;25.60;1.00
5134;DHT22;2585;48.696;10.066;2022-08-03T07:51:40;25.80;1.00
5134;DHT22;2585;48.696;10.066;2022-08-03T07:54:07;26.20;1.00
5134;DHT22;2585;48.696;10.066;2022-08-03T07:56:36;26.30;1.00
5134;DHT22;2585;48.696;10.066;2022-08-03T07:59:03;26.30;1.00
5134;DHT22;2585;48.696;10.066;2022-08-03T08:01:30;26.20;1.00
5134;DHT22;2585;48.696;10.066;2022-08-03T08:03:59;26.40;1.00
5134;DHT22;2585;48.696;10.066;2022-08-03T08:06:26;26.40;1.00
5134;DHT22;2585;48.696;10.066;2022-08-03T08:08:53;26.90;1.00
5134;DHT22;2585;48.696;10.066;2022-08-03T08:11:24;27.00;1.00
5134;DHT22;2585;48.696;10.066;2022-08-03T08:13:51;27.00;1.00
5134;DHT22;2585;48.696;10.066;2022-08-03T08:16:18;27.40;1.00
5134;DHT22;2585;48.696;10.066;2022-08-03T08:18:45;27.60;1.00
5134;DHT22;2585;48.696;10.066;2022-08-03T08:21:11;27.80;1.00
5134;DHT22;2585;48.696;10.066;2022-08-03T08:23:38;28.20;1.00
5134;DHT22;2585;48.696;10.066;2022-08-03T08:26:10;28.20;1.00
5134;DHT22;2585;48.696;10.066;2022-08-03T08:28:37;28.30;1.00
5134;DHT22;2585;48.696;10.066;2022-08-03T08:31:04;28.60;1.00
5134;DHT22;2585;48.696;10.066;2022-08-03T08:33:31;28.80;1.00
5134;DHT22;2585;48.696;10.066;2022-08-03T08:36:20;28.80;1.00
5134;DHT22;2585;48.696;10.066;2022-08-03T08:38:47;28.70;1.00
5134;DHT22;2585;48.696;10.066;2022-08-03T08:41:15;29.00;1.00
5134;DHT22;2585;48.696;10.066;2022-08-03T08:43:42;28.70;1.00
5134;DHT22;2585;48.696;10.066;2022-08-03T08:46:12;29.00;1.00
5134;DHT22;2585;48.696;10.066;2022-08-03T08:48:52;29.50;1.00
5134;DHT22;2585;48.696;10.066;2022-08-03T08:51:21;29.80;1.00
5134;DHT22;2585;48.696;10.066;2022-08-03T08:53:51;29.80;1.00
5134;DHT22;2585;48.696;10.066;2022-08-03T08:56:20;29.80;1.00
5134;DHT22;2585;48.696;10.066;2022-08-03T08:58:52;30.20;1.00
5134;DHT22;2585;48.696;10.066;2022-08-03T09:01:20;30.10;1.00
5134;DHT22;2585;48.696;10.066;2022-08-03T09:03:47;29.70;1.00
5134;DHT22;2585;48.696;10.066;2022-08-03T09:06:15;29.50;1.00
5134;DHT22;2585;48.696;10.066;2022-08-03T09:08:42;29.60;1.00
5134;DHT22;2585;48.696;10.066;2022-08-03T09:11:09;29.90;1.00
5134;DHT22;2585;48.696;10.066;2022-08-03T09:13:37;29.80;1.00
5134;DHT22;2585;48.696;10.066;2022-08-03T09:16:16;30.30;1.00
5134;DHT22;2585;48.696;10.066;2022-08-03T09:18:49;30.30;1.00
5134;DHT22;2585;48.696;10.066;2022-08-03T09:21:24;30.70;1.00
5134;DHT22;2585;48.696;10.066;2022-08-03T09:24:01;30.50;1.00
5134;DHT22;2585;48.696;10.066;2022-08-03T09:26:33;30.80;1.00
5134;DHT22;2585;48.696;10.066;2022-08-03T09:29:08;31.10;1.00
5134;DHT22;2585;48.696;10.066;2022-08-03T09:31:44;31.30;1.00
5134;DHT22;2585;48.696;10.066;2022-08-03T09:34:13;31.00;1.00
5134;DHT22;2585;48.696;10.066;2022-08-03T09:36:45;31.00;1.00
5134;DHT22;2585;48.696;10.066;2022-08-03T09:39:15;31.40;1.00
5134;DHT22;2585;48.696;10.066;2022-08-03T09:41:47;31.40;1.00
5134;DHT22;2585;48.696;10.066;2022-08-03T09:44:14;31.30;1.00
5134;DHT22;2585;48.696;10.066;2022-08-03T09:46:55;31.40;1.00
5134;DHT22;2585;48.696;10.066;2022-08-03T09:49:23;31.50;1.00
5134;DHT22;2585;48.696;10.066;2022-08-03T09:51:51;32.00;1.00
5134;DHT22;2585;48.696;10.066;2022-08-03T09:54:40;32.00;1.00
5134;DHT22;2585;48.696;10.066;2022-08-03T09:57:18;32.30;1.00
5134;DHT22;2585;48.696;10.066;2022-08-03T09:59:46;32.30;1.00
5134;DHT22;2585;48.696;10.066;2022-08-03T10:02:21;32.10;1.00
5134;DHT22;2585;48.696;10.066;2022-08-03T10:04:49;32.60;1.00
5134;DHT22;2585;48.696;10.066;2022-08-03T10:07:19;32.70;1.00
5134;DHT22;2585;48.696;10.066;2022-08-03T10:10:00;33.30;1.00
5134;DHT22;2585;48.696;10.066;2022-08-03T10:12:47;33.10;1.00
5134;DHT22;2585;48.696;10.066;2022-08-03T10:15:14;33.10;1.00
5134;DHT22;2585;48.696;10.066;2022-08-03T10:18:01;33.00;1.00
5134;DHT22;2585;48.696;10.066;2022-08-03T10:20:28;33.20;1.00
5134;DHT22;2585;48.696;10.066;2022-08-03T10:22:55;32.20;1.00
5134;DHT22;2585;48.696;10.066;2022-08-03T10:25:23;31.90;1.00
5134;DHT22;2585;48.696;10.066;2022-08-03T10:28:01;31.30;1.00
5134;DHT22;2585;48.696;10.066;2022-08-03T10:30:31;32.00;1.00
5134;DHT22;2585;48.696;10.066;2022-08-03T10:33:04;32.80;1.00
5134;DHT22;2585;48.696;10.066;2022-08-03T10:35:56;32.70;1.00
5134;DHT22;2585;48.696;10.066;2022-08-03T10:38:43;33.10;1.00
5134;DHT22;2585;48.696;10.066;2022-08-03T10:41:14;33.20;1.00
5134;DHT22;2585;48.696;10.066;2022-08-03T10:43:50;33.10;1.00
5134;DHT22;2585;48.696;10.066;2022-08-03T10:46:20;33.70;1.00
5134;DHT22;2585;48.696;10.066;2022-08-03T10:48:48;33.90;1.00
5134;DHT22;2585;48.696;10.066;2022-08-03T10:51:16;33.40;1.00
5134;DHT22;2585;48.696;10.066;2022-08-03T10:53:43;33.10;1.00
5134;DHT22;2585;48.696;10.066;2022-08-03T11:02:13;33.00;1.00
5134;DHT22;2585;48.696;10.066;2022-08-03T11:04:42;32.60;1.00
5134;DHT22;2585;48.696;10.066;2022-08-03T11:09:45;32.80;1.00
5134;DHT22;2585;48.696;10.066;2022-08-03T11:12:28;32.90;1.00
5134;DHT22;2585;48.696;10.066;2022-08-03T11:15:01;32.80;1.00
5134;DHT22;2585;48.696;10.066;2022-08-03T11:17:29;32.80;1.00
5134;DHT22;2585;48.696;10.066;2022-08-03T11:19:56;33.70;1.00
5134;DHT22;2585;48.696;10.066;2022-08-03T11:22:24;33.60;1.00
5134;DHT22;2585;48.696;10.066;2022-08-03T11:27:27;34.10;1.00
5134;DHT22;2585;48.696;10.066;2022-08-03T11:30:10;34.80;1.00
5134;DHT22;2585;48.696;10.066;2022-08-03T11:32:57;35.10;1.00
5134;DHT22;2585;48.696;10.066;2022-08-03T11:35:32;35.10;1.00
5134;DHT22;2585;48.696;10.066;2022-08-03T11:38:07;35.20;1.00
5134;DHT22;2585;48.696;10.066;2022-08-03T11:46:07;34.50;1.00
5134;DHT22;2585;48.696;10.066;2022-08-03T11:51:03;33.90;1.00
5134;DHT22;2585;48.696;10.066;2022-08-03T11:53:30;33.70;1.00
5134;DHT22;2585;48.696;10.066;2022-08-03T11:55:59;34.00;1.00
5134;DHT22;2585;48.696;10.066;2022-08-03T11:58:27;34.50;1.00
5134;DHT22;2585;48.696;10.066;2022-08-03T12:01:14;34.70;1.00
5134;DHT22;2585;48.696;10.066;2022-08-03T12:03:48;34.90;1.00
5134;DHT22;2585;48.696;10.066;2022-08-03T12:06:17;34.50;1.00
5134;DHT22;2585;48.696;10.066;2022-08-03T12:08:45;34.10;1.00
5134;DHT22;2585;48.696;10.066;2022-08-03T12:11:13;34.10;1.00
5134;DHT22;2585;48.696;10.066;2022-08-03T12:13:42;33.80;1.00
5134;DHT22;2585;48.696;10.066;2022-08-03T12:16:29;34.00;1.00
5134;DHT22;2585;48.696;10.066;2022-08-03T12:18:58;33.80;1.00
5134;DHT22;2585;48.696;10.066;2022-08-03T12:21:25;33.60;1.00
5134;DHT22;2585;48.696;10.066;2022-08-03T12:24:10;34.20;1.00
5134;DHT22;2585;48.696;10.066;2022-08-03T12:26:44;34.30;1.00
5134;DHT22;2585;48.696;10.066;2022-08-03T12:29:25;34.60;1.00
5134;DHT22;2585;48.696;10.066;2022-08-03T12:31:52;34.60;1.00
5134;DHT22;2585;48.696;10.066;2022-08-03T12:34:19;34.30;1.00
5134;DHT22;2585;48.696;10.066;2022-08-03T12:36:51;34.50;1.00
5134;DHT22;2585;48.696;10.066;2022-08-03T12:39:23;34.10;1.00
5134;DHT22;2585;48.696;10.066;2022-08-03T12:41:52;34.00;1.00
5134;DHT22;2585;48.696;10.066;2022-08-03T12:44:34;34.60;1.00
5134;DHT22;2585;48.696;10.066;2022-08-03T12:47:02;34.00;1.00
5134;DHT22;2585;48.696;10.066;2022-08-03T12:49:47;34.00;1.00
5134;DHT22;2585;48.696;10.066;2022-08-03T12:52:15;33.80;1.00
5134;DHT22;2585;48.696;10.066;2022-08-03T12:54:42;33.80;1.00
5134;DHT22;2585;48.696;10.066;2022-08-03T12:57:19;34.20;1.00
5134;DHT22;2585;48.696;10.066;2022-08-03T12:59:46;34.00;1.00
5134;DHT22;2585;48.696;10.066;2022-08-03T13:02:24;34.40;1.00
5134;DHT22;2585;48.696;10.066;2022-08-03T13:04:53;35.30;1.00
5134;DHT22;2585;48.696;10.066;2022-08-03T13:07:20;35.60;1.00
5134;DHT22;2585;48.696;10.066;2022-08-03T13:09:53;34.40;1.00
5134;DHT22;2585;48.696;10.066;2022-08-03T13:12:27;34.30;1.00
5134;DHT22;2585;48.696;10.066;2022-08-03T13:14:57;34.50;1.00
5134;DHT22;2585;48.696;10.066;2022-08-03T13:17:25;34.80;1.00
5134;DHT22;2585;48.696;10.066;2022-08-03T13:19:52;36.00;1.00
5134;DHT22;2585;48.696;10.066;2022-08-03T13:22:22;36.20;1.00
5134;DHT22;2585;48.696;10.066;2022-08-03T13:24:52;36.20;1.00
5134;DHT22;2585;48.696;10.066;2022-08-03T13:27:21;36.50;1.00
5134;DHT22;2585;48.696;10.066;2022-08-03T13:30:09;36.70;1.00
5134;DHT22;2585;48.696;10.066;2022-08-03T13:32:36;36.50;1.00
5134;DHT22;2585;48.696;10.066;2022-08-03T13:35:04;36.30;1.00
5134;DHT22;2585;48.696;10.066;2022-08-03T13:37:31;36.40;1.00
5134;DHT22;2585;48.696;10.066;2022-08-03T13:39:59;36.60;1.00
5134;DHT22;2585;48.696;10.066;2022-08-03T13:42:30;36.40;1.00
5134;DHT22;2585;48.696;10.066;2022-08-03T13:44:58;35.90;1.00
5134;DHT22;2585;48.696;10.066;2022-08-03T13:47:26;36.00;1.00
5134;DHT22;2585;48.696;10.066;2022-08-03T13:49:53;36.10;1.00
5134;DHT22;2585;48.696;10.066;2022-08-03T13:52:32;35.90;1.00
5134;DHT22;2585;48.696;10.066;2022-08-03T13:55:00;35.30;1.00
5134;DHT22;2585;48.696;10.066;2022-08-03T13:57:28;35.70;1.00
5134;DHT22;2585;48.696;10.066;2022-08-03T14:00:16;35.80;1.00
5134;DHT22;2585;48.696;10.066;2022-08-03T14:02:55;35.40;1.00
5134;DHT22;2585;48.696;10.066;2022-08-03T14:05:31;35.40;1.00
5134;DHT22;2585;48.696;10.066;2022-08-03T14:07:59;34.40;1.00
5134;DHT22;2585;48.696;10.066;2022-08-03T14:10:42;34.40;1.00
5134;DHT22;2585;48.696;10.066;2022-08-03T14:13:11;35.00;1.00
5134;DHT22;2585;48.696;10.066;2022-08-03T14:15:42;35.20;1.00
5134;DHT22;2585;48.696;10.066;2022-08-03T14:18:16;35.60;1.00
5134;DHT22;2585;48.696;10.066;2022-08-03T14:21:01;35.70;1.00
5134;DHT22;2585;48.696;10.066;2022-08-03T14:23:32;35.60;1.00
5134;DHT22;2585;48.696;10.066;2022-08-03T14:25:59;35.50;1.00
5134;DHT22;2585;48.696;10.066;2022-08-03T14:28:26;35.80;1.00
5134;DHT22;2585;48.696;10.066;2022-08-03T14:30:54;35.90;1.00
5134;DHT22;2585;48.696;10.066;2022-08-03T14:33:24;36.10;1.00
5134;DHT22;2585;48.696;10.066;2022-08-03T14:35:51;35.80;1.00
5134;DHT22;2585;48.696;10.066;2022-08-03T14:38:18;35.20;1.00
5134;DHT22;2585;48.696;10.066;2022-08-03T14:40:46;35.00;1.00
5134;DHT22;2585;48.696;10.066;2022-08-03T14:43:13;35.50;1.00
5134;DHT22;2585;48.696;10.066;2022-08-03T14:45:40;35.10;1.00
5134;DHT22;2585;48.696;10.066;2022-08-03T14:48:07;34.80;1.00
5134;DHT22;2585;48.696;10.066;2022-08-03T14:50:54;34.80;1.00
5134;DHT22;2585;48.696;10.066;2022-08-03T14:53:22;34.70;1.00
5134;DHT22;2585;48.696;10.066;2022-08-03T14:55:49;35.00;1.00
5134;DHT22;2585;48.696;10.066;2022-08-03T14:58:19;34.40;1.00
5134;DHT22;2585;48.696;10.066;2022-08-03T15:00:48;33.80;1.00
5134;DHT22;2585;48.696;10.066;2022-08-03T15:03:16;34.20;1.00
5134;DHT22;2585;48.696;10.066;2022-08-03T15:05:46;34.20;1.00
5134;DHT22;2585;48.696;10.066;2022-08-03T15:08:12;34.50;1.00
5134;DHT22;2585;48.696;10.066;2022-08-03T15:10:39;34.30;1.00
5134;DHT22;2585;48.696;10.066;2022-08-03T15:13:14;34.10;1.00
5134;DHT22;2585;48.696;10.066;2022-08-03T15:15:41;33.30;1.00
5134;DHT22;2585;48.696;10.066;2022-08-03T15:18:08;33.20;1.00
5134;DHT22;2585;48.696;10.066;2022-08-03T15:20:35;32.90;1.00
5134;DHT22;2585;48.696;10.066;2022-08-03T15:23:12;32.60;1.00
5134;DHT22;2585;48.696;10.066;2022-08-03T15:25:39;32.50;1.00
5134;DHT22;2585;48.696;10.066;2022-08-03T15:28:26;32.90;1.00
5134;DHT22;2585;48.696;10.066;2022-08-03T15:30:53;32.90;1.00
5134;DHT22;2585;48.696;10.066;2022-08-03T15:33:20;32.80;1.00
5134;DHT22;2585;48.696;10.066;2022-08-03T15:35:47;32.80;1.00
5134;DHT22;2585;48.696;10.066;2022-08-03T15:38:15;32.70;1.00
5134;DHT22;2585;48.696;10.066;2022-08-03T15:40:42;32.70;1.00
5134;DHT22;2585;48.696;10.066;2022-08-03T15:43:09;32.40;1.00
5134;DHT22;2585;48.696;10.066;2022-08-03T15:45:36;32.20;1.00
5134;DHT22;2585;48.696;10.066;2022-08-03T15:48:04;32.10;1.00
5134;DHT22;2585;48.696;10.066;2022-08-03T15:50:31;31.90;1.00
5134;DHT22;2585;48.696;10.066;2022-08-03T15:52:58;31.80;1.00
5134;DHT22;2585;48.696;10.066;2022-08-03T15:55:25;31.80;1.00
5134;DHT22;2585;48.696;10.066;2022-08-03T15:57:52;31.50;1.00
5134;DHT22;2585;48.696;10.066;2022-08-03T16:00:40;31.50;1.00
5134;DHT22;2585;48.696;10.066;2022-08-03T16:03:07;31.40;1.00
5134;DHT22;2585;48.696;10.066;2022-08-03T16:05:34;31.20;1.00
5134;DHT22;2585;48.696;10.066;2022-08-03T16:08:01;31.20;1.00
5134;DHT22;2585;48.696;10.066;2022-08-03T16:10:31;31.00;1.00
5134;DHT22;2585;48.696;10.066;2022-08-03T16:12:58;31.00;1.00
5134;DHT22;2585;48.696;10.066;2022-08-03T16:15:26;30.90;1.00
5134;DHT22;2585;48.696;10.066;2022-08-03T16:17:53;30.70;1.00
5134;DHT22;2585;48.696;10.066;2022-08-03T16:20:20;30.60;1.00
5134;DHT22;2585;48.696;10.066;2022-08-03T16:23:02;30.50;1.00
5134;DHT22;2585;48.696;10.066;2022-08-03T16:25:39;30.50;1.00
5134;DHT22;2585;48.696;10.066;2022-08-03T16:28:07;30.60;1.00
5134;DHT22;2585;48.696;10.066;2022-08-03T16:30:41;30.40;1.00
5134;DHT22;2585;48.696;10.066;2022-08-03T16:33:09;30.30;1.00
5134;DHT22;2585;48.696;10.066;2022-08-03T16:35:36;30.20;1.00
5134;DHT22;2585;48.696;10.066;2022-08-03T16:38:04;30.20;1.00
5134;DHT22;2585;48.696;10.066;2022-08-03T16:40:36;30.10;1.00
5134;DHT22;2585;48.696;10.066;2022-08-03T16:43:23;30.00;1.00
5134;DHT22;2585;48.696;10.066;2022-08-03T16:45:51;30.00;1.00
5134;DHT22;2585;48.696;10.066;2022-08-03T16:48:18;30.00;1.00
5134;DHT22;2585;48.696;10.066;2022-08-03T16:50:45;29.90;1.00
5134;DHT22;2585;48.696;10.066;2022-08-03T16:53:13;29.90;1.00
5134;DHT22;2585;48.696;10.066;2022-08-03T16:55:44;29.80;1.00